Observation data for Ralls on 01/20/2019      Previous  Date  Next       Current Mesonet Observations  Soil Data  Daily Summary Page  Observations in Plain Language
KRLS 200600Z 14007KT M03/M07 A303 RMK A01 T10291073  RH  071%=      5-min Rain = 0
KRLS 200605Z 14007KT M03/M07 A303 RMK A01 T10321074  RH  072%=      5-min Rain = 0
KRLS 200610Z 14007KT M03/M07 A303 RMK A01 T10331074  RH  074%=      5-min Rain = 0
KRLS 200615Z 14007KT M03/M07 A303 RMK A01 T10311071  RH  073%=      5-min Rain = 0
KRLS 200620Z 14006KT M03/M07 A3031 RMK A01 T10301072  RH  072%=      5-min Rain = 0
KRLS 200625Z 15006KT M03/M07 A3031 RMK A01 T10321074  RH  073%=      5-min Rain = 0
KRLS 200630Z 14005KT M03/M07 A3031 RMK A01 T10341074  RH  074%=      5-min Rain = 0
KRLS 200635Z 15007KT M04/M08 A303 RMK A01 T10351077  RH  072%=      5-min Rain = 0
KRLS 200640Z 15008KT M03/M07 A303 RMK A01 T10331073  RH  074%=      5-min Rain = 0
KRLS 200645Z 15007KT M03/M07 A303 RMK A01 T10321074  RH  073%=      5-min Rain = 0
KRLS 200650Z 15007KT M03/M08 A303 RMK A01 T10341075  RH  073%=      5-min Rain = 0
KRLS 200655Z 14007KT M03/M08 A303 RMK A01 T10331076  RH  072%=      5-min Rain = 0
KRLS 200700Z 13007KT M03/M08 A3031 RMK A01 T10331079  RH  071%=      5-min Rain = 0
KRLS 200705Z 14007KT M04/M08 A303 RMK A01 T10351080  RH  071%=      5-min Rain = 0
KRLS 200710Z 15008KT M04/M08 A303 RMK A01 T10351079  RH  072%=      5-min Rain = 0
KRLS 200715Z 15007KT M04/M08 A3029 RMK A01 T10351077  RH  072%=      5-min Rain = 0
KRLS 200720Z 15007KT M04/M08 A3029 RMK A01 T10351078  RH  072%=      5-min Rain = 0
KRLS 200725Z 14007KT M04/M08 A3029 RMK A01 T10381079  RH  073%=      5-min Rain = 0
KRLS 200730Z 14007KT M04/M08 A3029 RMK A01 T10381078  RH  074%=      5-min Rain = 0
KRLS 200735Z 15007KT M04/M08 A3029 RMK A01 T10391078  RH  074%=      5-min Rain = 0
KRLS 200740Z 15007KT M04/M08 A3029 RMK A01 T10391077  RH  075%=      5-min Rain = 0
KRLS 200745Z 14007KT M04/M08 A303 RMK A01 T10391077  RH  075%=      5-min Rain = 0
KRLS 200750Z 14007KT M04/M08 A303 RMK A01 T10391077  RH  075%=      5-min Rain = 0
KRLS 200755Z 15007KT M04/M08 A303 RMK A01 T10391078  RH  074%=      5-min Rain = 0
KRLS 200800Z 15007KT M04/M08 A303 RMK A01 T10391078  RH  074%=      5-min Rain = 0
KRLS 200805Z 15007KT M04/M08 A303 RMK A01 T10401079  RH  075%=      5-min Rain = 0
KRLS 200810Z 15006KT M04/M08 A303 RMK A01 T10411079  RH  075%=      5-min Rain = 0
KRLS 200815Z 14006KT M04/M08 A3029 RMK A01 T10431081  RH  075%=      5-min Rain = 0
KRLS 200820Z 15006KT M05/M08 A3029 RMK A01 T10451082  RH  076%=      5-min Rain = 0
KRLS 200825Z 15007KT M05/M08 A3029 RMK A01 T10451079  RH  077%=      5-min Rain = 0
KRLS 200830Z 14006KT M04/M08 A3029 RMK A01 T10431079  RH  076%=      5-min Rain = 0
KRLS 200835Z 15007KT M04/M08 A3029 RMK A01 T10441080  RH  076%=      5-min Rain = 0
KRLS 200840Z 14006KT M04/M08 A3029 RMK A01 T10421080  RH  075%=      5-min Rain = 0
KRLS 200845Z 15006KT M04/M08 A3029 RMK A01 T10431082  RH  074%=      5-min Rain = 0
KRLS 200850Z 16006KT M05/M08 A3029 RMK A01 T10451083  RH  075%=      5-min Rain = 0
KRLS 200855Z 16006KT M05/M08 A303 RMK A01 T10471084  RH  076%=      5-min Rain = 0
KRLS 200900Z 16006KT M05/M08 A303 RMK A01 T10451082  RH  075%=      5-min Rain = 0
KRLS 200905Z 17006KT M05/M09 A303 RMK A01 T10491086  RH  075%=      5-min Rain = 0
KRLS 200910Z 17006KT M05/M09 A303 RMK A01 T10511086  RH  076%=      5-min Rain = 0
KRLS 200915Z 17007KT M05/M09 A3029 RMK A01 T10511086  RH  077%=      5-min Rain = 0
KRLS 200920Z 17006KT M05/M09 A3029 RMK A01 T10511085  RH  077%=      5-min Rain = 0
KRLS 200925Z 16005KT M05/M08 A303 RMK A01 T10491083  RH  077%=      5-min Rain = 0
KRLS 200930Z 15005KT M05/M09 A303 RMK A01 T10481085  RH  076%=      5-min Rain = 0
KRLS 200935Z 15005KT M05/M09 A3029 RMK A01 T10521090  RH  075%=      5-min Rain = 0
KRLS 200940Z 15005KT M05/M09 A3029 RMK A01 T10541090  RH  076%=      5-min Rain = 0
KRLS 200945Z 16005KT M05/M09 A3029 RMK A01 T10521088  RH  076%=      5-min Rain = 0
KRLS 200950Z 16005KT M05/M09 A303 RMK A01 T10511087  RH  076%=      5-min Rain = 0
KRLS 200955Z 17006KT M05/M09 A3029 RMK A01 T10491085  RH  076%=      5-min Rain = 0
KRLS 201000Z 17006KT M05/M09 A3029 RMK A01 T10541087  RH  077%=      5-min Rain = 0
KRLS 201005Z 17007KT M05/M09 A303 RMK A01 T10541085  RH  078%=      5-min Rain = 0
KRLS 201010Z 17006KT M05/M08 A3029 RMK A01 T10521083  RH  079%=      5-min Rain = 0
KRLS 201015Z 17006KT M05/M09 A3029 RMK A01 T10531085  RH  078%=      5-min Rain = 0
KRLS 201020Z 17006KT M05/M08 A3029 RMK A01 T10531084  RH  078%=      5-min Rain = 0
KRLS 201025Z 18007KT M06/M09 A3029 RMK A01 T10561087  RH  078%=      5-min Rain = 0
KRLS 201030Z 17008KT M06/M09 A3028 RMK A01 T10551086  RH  079%=      5-min Rain = 0
KRLS 201035Z 17007KT M05/M09 A3028 RMK A01 T10541085  RH  079%=      5-min Rain = 0
KRLS 201040Z 17007KT M05/M09 A3028 RMK A01 T10541086  RH  078%=      5-min Rain = 0
KRLS 201045Z 17007KT M06/M09 A3028 RMK A01 T10551087  RH  078%=      5-min Rain = 0
KRLS 201050Z 17006KT M05/M09 A3028 RMK A01 T10541087  RH  078%=      5-min Rain = 0
KRLS 201055Z 16006KT M05/M09 A3028 RMK A01 T10521085  RH  077%=      5-min Rain = 0
KRLS 201100Z 17006KT M05/M09 A3028 RMK A01 T10501086  RH  076%=      5-min Rain = 0
KRLS 201105Z 16006KT M05/M09 A3028 RMK A01 T10511089  RH  075%=      5-min Rain = 0
KRLS 201110Z 16007KT M05/M09 A3028 RMK A01 T10521089  RH  075%=      5-min Rain = 0
KRLS 201115Z 16007KT M05/M09 A3027 RMK A01 T10501089  RH  074%=      5-min Rain = 0
KRLS 201120Z 17007KT M05/M09 A3027 RMK A01 T10531091  RH  075%=      5-min Rain = 0
KRLS 201125Z 17007KT M05/M09 A3027 RMK A01 T10521090  RH  075%=      5-min Rain = 0
KRLS 201130Z 17007KT M05/M09 A3026 RMK A01 T10521090  RH  075%=      5-min Rain = 0
KRLS 201135Z 17007KT M05/M09 A3027 RMK A01 T10521089  RH  075%=      5-min Rain = 0
KRLS 201140Z 17007KT M05/M09 A3026 RMK A01 T10521089  RH  075%=      5-min Rain = 0
KRLS 201145Z 17007KT M05/M09 A3026 RMK A01 T10531090  RH  076%=      5-min Rain = 0
KRLS 201150Z 17007KT M05/M09 A3026 RMK A01 T10541089  RH  076%=      5-min Rain = 0
KRLS 201155Z 17006KT M05/M09 A3026 RMK A01 T10541088  RH  076%=      5-min Rain = 0
KRLS 201200Z 17007KT M05/M09 A3026 RMK A01 T10541089  RH  076%=      5-min Rain = 0
KRLS 201205Z 17008KT M05/M09 A3025 RMK A01 T10531089  RH  076%=      5-min Rain = 0
KRLS 201210Z 17007KT M05/M09 A3025 RMK A01 T10521088  RH  076%=      5-min Rain = 0
KRLS 201215Z 17007KT M05/M09 A3025 RMK A01 T10521087  RH  076%=      5-min Rain = 0
KRLS 201220Z 17006KT M05/M09 A3025 RMK A01 T10531087  RH  077%=      5-min Rain = 0
KRLS 201225Z 17006KT M05/M09 A3025 RMK A01 T10541088  RH  077%=      5-min Rain = 0
KRLS 201230Z 18007KT M05/M09 A3025 RMK A01 T10541087  RH  077%=      5-min Rain = 0
KRLS 201235Z 18008KT M05/M09 A3025 RMK A01 T10491085  RH  076%=      5-min Rain = 0
KRLS 201240Z 17007KT M05/M09 A3025 RMK A01 T10491086  RH  075%=      5-min Rain = 0
KRLS 201245Z 17006KT M05/M09 A3025 RMK A01 T10501087  RH  075%=      5-min Rain = 0
KRLS 201250Z 18007KT M05/M09 A3025 RMK A01 T10531088  RH  076%=      5-min Rain = 0
KRLS 201255Z 18008KT M05/M09 A3025 RMK A01 T10511086  RH  076%=      5-min Rain = 0
KRLS 201300Z 18008KT M05/M09 A3025 RMK A01 T10501086  RH  076%=      5-min Rain = 0
KRLS 201305Z 18008KT M05/M09 A3025 RMK A01 T10501086  RH  076%=      5-min Rain = 0
KRLS 201310Z 18008KT M05/M09 A3025 RMK A01 T10481085  RH  075%=      5-min Rain = 0
KRLS 201315Z 18008KT M05/M08 A3025 RMK A01 T10471084  RH  075%=      5-min Rain = 0
KRLS 201320Z 18008KT M05/M08 A3025 RMK A01 T10471084  RH  075%=      5-min Rain = 0
KRLS 201325Z 17008KT M05/M08 A3025 RMK A01 T10481084  RH  076%=      5-min Rain = 0
KRLS 201330Z 18008KT M05/M08 A3025 RMK A01 T10481084  RH  076%=      5-min Rain = 0
KRLS 201335Z 18008KT M05/M08 A3025 RMK A01 T10471083  RH  076%=      5-min Rain = 0
KRLS 201340Z 18009KT M04/M08 A3025 RMK A01 T10441082  RH  075%=      5-min Rain = 0
KRLS 201345Z 18009KT M04/M08 A3025 RMK A01 T10421082  RH  074%=      5-min Rain = 0
KRLS 201350Z 18009KT M04/M08 A3025 RMK A01 T10411081  RH  073%=      5-min Rain = 0
KRLS 201355Z 18007KT M04/M08 A3025 RMK A01 T10411083  RH  073%=      5-min Rain = 0
KRLS 201400Z 18007KT M05/M08 A3025 RMK A01 T10451084  RH  074%=      5-min Rain = 0
KRLS 201405Z 18007KT M05/M08 A3025 RMK A01 T10471083  RH  076%=      5-min Rain = 0
KRLS 201410Z 18008KT M05/M08 A3025 RMK A01 T10451081  RH  076%=      5-min Rain = 0
KRLS 201415Z 18009KT M04/M08 A3025 RMK A01 T10411079  RH  075%=      5-min Rain = 0
KRLS 201420Z 18008KT M04/M08 A3026 RMK A01 T10381079  RH  073%=      5-min Rain = 0
KRLS 201425Z 18008KT M04/M08 A3026 RMK A01 T10371078  RH  073%=      5-min Rain = 0
KRLS 201430Z 17007KT M04/M08 A3026 RMK A01 T10371078  RH  073%=      5-min Rain = 0
KRLS 201435Z 17007KT M04/M08 A3026 RMK A01 T10351076  RH  073%=      5-min Rain = 0
KRLS 201440Z 17007KT M03/M07 A3026 RMK A01 T10301073  RH  072%=      5-min Rain = 0
KRLS 201445Z 17006KT M03/M07 A3026 RMK A01 T10261071  RH  071%=      5-min Rain = 0
KRLS 201450Z 18006KT M02/M07 A3026 RMK A01 T10201068  RH  070%=      5-min Rain = 0
KRLS 201455Z 18007KT M01/M07 A3026 RMK A01 T10141067  RH  068%=      5-min Rain = 0
KRLS 201500Z 18008KT M01/M07 A3026 RMK A01 T10101065  RH  066%=      5-min Rain = 0
KRLS 201505Z 18009KT M01/M06 A3026 RMK A01 T10071064  RH  065%=      5-min Rain = 0
KRLS 201510Z 18010KT M00/M06 A3026 RMK A01 T10041064  RH  064%=      5-min Rain = 0
KRLS 201515Z 19010KT 00/06 A3025 RMK A01 T00-00-60  RH  064%=      5-min Rain = 0
KRLS 201520Z 19010KT 00/M06 A3025 RMK A01 T00011059  RH  065%=      5-min Rain = 0
KRLS 201525Z 19008KT 00/M06 A3025 RMK A01 T00021056  RH  065%=      5-min Rain = 0
KRLS 201530Z 19009KT 01/M05 A3025 RMK A01 T00061053  RH  065%=      5-min Rain = 0
KRLS 201535Z 19009KT 01/M05 A3026 RMK A01 T00111051  RH  064%=      5-min Rain = 0
KRLS 201540Z 19010KT 02/M05 A3026 RMK A01 T00151050  RH  062%=      5-min Rain = 0
KRLS 201545Z 19010KT 02/M05 A3025 RMK A01 T00181049  RH  061%=      5-min Rain = 0
KRLS 201550Z 19010KT 02/M05 A3025 RMK A01 T00221047  RH  061%=      5-min Rain = 0
KRLS 201555Z 18010KT 02/M05 A3025 RMK A01 T00221048  RH  060%=      5-min Rain = 0
KRLS 201600Z 18010KT 03/M05 A3025 RMK A01 T00261046  RH  059%=      5-min Rain = 0
KRLS 201605Z 18011KT 03/M05 A3025 RMK A01 T00281046  RH  058%=      5-min Rain = 0
KRLS 201610Z 18010KT 03/M04 A3025 RMK A01 T00321044  RH  058%=      5-min Rain = 0
KRLS 201615Z 18010KT 03/M05 A3025 RMK A01 T00341045  RH  057%=      5-min Rain = 0
KRLS 201620Z 19011KT 04/M04 A3025 RMK A01 T00391042  RH  056%=      5-min Rain = 0
KRLS 201625Z 19012KT 04/M04 A3025 RMK A01 T00411042  RH  055%=      5-min Rain = 0
KRLS 201630Z 20013KT 04/M04 A3024 RMK A01 T00431041  RH  054%=      5-min Rain = 0
KRLS 201635Z 19014KT 04/M04 A3025 RMK A01 T00441042  RH  054%=      5-min Rain = 0
KRLS 201640Z 19015KT 04/M04 A3024 RMK A01 T00431044  RH  054%=      5-min Rain = 0
KRLS 201645Z 20014KT 05/M04 A3024 RMK A01 T00471040  RH  053%=      5-min Rain = 0
KRLS 201650Z 20015KT 05/M04 A3023 RMK A01 T00511039  RH  052%=      5-min Rain = 0
KRLS 201655Z 20014G19KT 05/M04 A3023 RMK A01 T00541038  RH  052%=      5-min Rain = 0
KRLS 201700Z 20014KT 06/M04 A3023 RMK A01 T00581036  RH  051%=      5-min Rain = 0
KRLS 201705Z 21014KT 06/M04 A3023 RMK A01 T00621036  RH  050%=      5-min Rain = 0
KRLS 201710Z 21014KT 07/M03 A3023 RMK A01 T00671034  RH  049%=      5-min Rain = 0
KRLS 201715Z 21015G20KT 07/M04 A3023 RMK A01 T00681035  RH  048%=      5-min Rain = 0
KRLS 201720Z 21014KT 07/M03 A3023 RMK A01 T00711033  RH  048%=      5-min Rain = 0
KRLS 201725Z 21014G19KT 07/M03 A3023 RMK A01 T00731033  RH  047%=      5-min Rain = 0
KRLS 201730Z 20016KT 08/M03 A3023 RMK A01 T00781034  RH  046%=      5-min Rain = 0
KRLS 201735Z 20014KT 09/M03 A3022 RMK A01 T00861032  RH  044%=      5-min Rain = 0
KRLS 201740Z 20015KT 09/M03 A3022 RMK A01 T00851034  RH  043%=      5-min Rain = 0
KRLS 201745Z 21014KT 09/M03 A3022 RMK A01 T00891034  RH  042%=      5-min Rain = 0
KRLS 201750Z 21014KT 09/M03 A3022 RMK A01 T00931034  RH  041%=      5-min Rain = 0
KRLS 201755Z 20013G18KT 10/M03 A3021 RMK A01 T00981033  RH  040%=      5-min Rain = 0
KRLS 201800Z 21016KT 10/M03 A3021 RMK A01 T01021033  RH  039%=      5-min Rain = 0
KRLS 201805Z 21014G19KT 11/M03 A3021 RMK A01 T01131028  RH  037%=      5-min Rain = 0
KRLS 201810Z 21017G23KT 11/M03 A302 RMK A01 T01101034  RH  036%=      5-min Rain = 0
KRLS 201815Z 21016G21KT 11/M04 A302 RMK A01 T01081037  RH  036%=      5-min Rain = 0
KRLS 201820Z 21016G21KT 11/M04 A302 RMK A01 T01111037  RH  035%=      5-min Rain = 0
KRLS 201825Z 21015G21KT 11/M04 A3019 RMK A01 T01141039  RH  034%=      5-min Rain = 0
KRLS 201830Z 21016KT 12/M04 A3019 RMK A01 T01181037  RH  034%=      5-min Rain = 0
KRLS 201835Z 21016KT 12/M04 A3019 RMK A01 T01191038  RH  033%=      5-min Rain = 0
KRLS 201840Z 21016G22KT 12/M04 A3018 RMK A01 T01231038  RH  033%=      5-min Rain = 0
KRLS 201845Z 22014G19KT 12/M04 A3018 RMK A01 T01231036  RH  033%=      5-min Rain = 0
KRLS 201850Z 21015G21KT 13/M04 A3017 RMK A01 T01291037  RH  032%=      5-min Rain = 0
KRLS 201855Z 21013KT 13/M04 A3017 RMK A01 T01321035  RH  031%=      5-min Rain = 0
KRLS 201900Z 21013KT 13/M04 A3017 RMK A01 T01281040  RH  031%=      5-min Rain = 0
KRLS 201905Z 21014KT 13/M04 A3016 RMK A01 T01341039  RH  030%=      5-min Rain = 0
KRLS 201910Z 21014KT 13/M05 A3016 RMK A01 T01331045  RH  029%=      5-min Rain = 0
KRLS 201915Z 21013KT 14/M04 A3016 RMK A01 T01361043  RH  029%=      5-min Rain = 0
KRLS 201920Z 21013G18KT 14/M04 A3015 RMK A01 T01361043  RH  029%=      5-min Rain = 0
KRLS 201925Z 21013KT 14/M04 A3015 RMK A01 T01401043  RH  028%=      5-min Rain = 0
KRLS 201930Z 21013KT 14/M05 A3014 RMK A01 T01361047  RH  028%=      5-min Rain = 0
KRLS 201935Z 22013KT 14/M05 A3014 RMK A01 T01411049  RH  027%=      5-min Rain = 0
KRLS 201940Z 21013KT 14/M05 A3014 RMK A01 T01421048  RH  027%=      5-min Rain = 0
KRLS 201945Z 21015KT 15/M05 A3014 RMK A01 T01471049  RH  025%=      5-min Rain = 0
KRLS 201950Z 21013KT 15/M05 A3013 RMK A01 T01471049  RH  025%=      5-min Rain = 0
KRLS 201955Z 20014G20KT 15/M05 A3012 RMK A01 T01491050  RH  025%=      5-min Rain = 0
KRLS 202000Z 20014KT 15/M05 A3012 RMK A01 T01511050  RH  025%=      5-min Rain = 0
KRLS 202005Z 20013G18KT 15/M05 A3012 RMK A01 T01461052  RH  025%=      5-min Rain = 0
KRLS 202010Z 20014KT 15/M05 A3012 RMK A01 T01461051  RH  025%=      5-min Rain = 0
KRLS 202015Z 19015KT 14/M05 A3011 RMK A01 T01421052  RH  026%=      5-min Rain = 0
KRLS 202020Z 20014KT 14/M06 A3011 RMK A01 T01441056  RH  025%=      5-min Rain = 0
KRLS 202025Z 20013G18KT 15/M05 A3011 RMK A01 T01481050  RH  025%=      5-min Rain = 0
KRLS 202030Z 20013G18KT 15/M05 A3011 RMK A01 T01461054  RH  025%=      5-min Rain = 0
KRLS 202035Z 21013KT 14/M05 A3011 RMK A01 T01441051  RH  026%=      5-min Rain = 0
KRLS 202040Z 21012KT 14/M05 A3011 RMK A01 T01441052  RH  025%=      5-min Rain = 0
KRLS 202045Z 21013G19KT 14/M06 A3011 RMK A01 T01441055  RH  025%=      5-min Rain = 0
KRLS 202050Z 20012G17KT 15/M05 A3011 RMK A01 T01461053  RH  025%=      5-min Rain = 0
KRLS 202055Z 20013G18KT 15/M05 A301 RMK A01 T01501054  RH  024%=      5-min Rain = 0
KRLS 202100Z 21012KT 15/M05 A301 RMK A01 T01491053  RH  024%=      5-min Rain = 0
KRLS 202105Z 21012KT 16/M05 A301 RMK A01 T01551051  RH  024%=      5-min Rain = 0
KRLS 202110Z 20012KT 15/M05 A301 RMK A01 T01531050  RH  024%=      5-min Rain = 0
KRLS 202115Z 20013KT 16/M05 A301 RMK A01 T01611045  RH  024%=      5-min Rain = 0
KRLS 202120Z 20013KT 16/M05 A3009 RMK A01 T01631050  RH  023%=      5-min Rain = 0
KRLS 202125Z 21013G18KT 16/M05 A3009 RMK A01 T01621054  RH  022%=      5-min Rain = 0
KRLS 202130Z 20013KT 16/M05 A3009 RMK A01 T01601051  RH  023%=      5-min Rain = 0
KRLS 202135Z 20014KT 16/M05 A3009 RMK A01 T01601052  RH  023%=      5-min Rain = 0
KRLS 202140Z 20013KT 16/M05 A3009 RMK A01 T01601051  RH  023%=      5-min Rain = 0
KRLS 202145Z 20013KT 16/M05 A3008 RMK A01 T01631050  RH  023%=      5-min Rain = 0
KRLS 202150Z 20014KT 16/M05 A3008 RMK A01 T01631051  RH  023%=      5-min Rain = 0
KRLS 202155Z 20013KT 16/M05 A3008 RMK A01 T01641050  RH  023%=      5-min Rain = 0
KRLS 202200Z 20012G18KT 17/M05 A3008 RMK A01 T01681050  RH  022%=      5-min Rain = 0
KRLS 202205Z 18012KT 17/M05 A3008 RMK A01 T01651052  RH  022%=      5-min Rain = 0
KRLS 202210Z 20012KT 17/M05 A3008 RMK A01 T01661053  RH  022%=      5-min Rain = 0
KRLS 202215Z 20012KT 17/M05 A3008 RMK A01 T01691053  RH  021%=      5-min Rain = 0
KRLS 202220Z 21014KT 17/M06 A3008 RMK A01 T01701060  RH  020%=      5-min Rain = 0
KRLS 202225Z 20014KT 17/M06 A3008 RMK A01 T01701064  RH  020%=      5-min Rain = 0
KRLS 202230Z 20012KT 17/M06 A3008 RMK A01 T01701062  RH  020%=      5-min Rain = 0
KRLS 202235Z 20014KT 17/M06 A3008 RMK A01 T01691064  RH  020%=      5-min Rain = 0
KRLS 202240Z 20013G19KT 17/M07 A3008 RMK A01 T01671066  RH  020%=      5-min Rain = 0
KRLS 202245Z 20015KT 17/M07 A3007 RMK A01 T01671065  RH  020%=      5-min Rain = 0
KRLS 202250Z 20014KT 16/M07 A3007 RMK A01 T01631067  RH  020%=      5-min Rain = 0
KRLS 202255Z 21012KT 16/M07 A3007 RMK A01 T01621069  RH  020%=      5-min Rain = 0
KRLS 202300Z 21012KT 16/M07 A3007 RMK A01 T01611072  RH  020%=      5-min Rain = 0
KRLS 202305Z 21011KT 16/M07 A3007 RMK A01 T01611070  RH  020%=      5-min Rain = 0
KRLS 202310Z 20010KT 16/M07 A3007 RMK A01 T01591066  RH  021%=      5-min Rain = 0
KRLS 202315Z 20011KT 16/M06 A3007 RMK A01 T01571062  RH  022%=      5-min Rain = 0
KRLS 202320Z 20010KT 15/M06 A3007 RMK A01 T01531061  RH  022%=      5-min Rain = 0
KRLS 202325Z 20011KT 15/M06 A3007 RMK A01 T01531062  RH  022%=      5-min Rain = 0
KRLS 202330Z 19009KT 15/M06 A3007 RMK A01 T01471058  RH  024%=      5-min Rain = 0
KRLS 202335Z 19009KT 14/M06 A3007 RMK A01 T01401055  RH  025%=      5-min Rain = 0
KRLS 202340Z 19010KT 14/M06 A3007 RMK A01 T01381061  RH  025%=      5-min Rain = 0
KRLS 202345Z 19010KT 13/M07 A3006 RMK A01 T01321067  RH  024%=      5-min Rain = 0
KRLS 202350Z 19011KT 13/M07 A3006 RMK A01 T01301073  RH  024%=      5-min Rain = 0
KRLS 202355Z 19011KT 13/M08 A3006 RMK A01 T01271075  RH  024%=      5-min Rain = 0
KRLS 210000Z 19010KT 12/M08 A3006 RMK A01 T01211076  RH  025%=      5-min Rain = 0
KRLS 210005Z 18008KT 11/M08 A3006 RMK A01 T01111075  RH  026%=      5-min Rain = 0
KRLS 210010Z 18009KT 10/M07 A3006 RMK A01 T01041074  RH  028%=      5-min Rain = 0
KRLS 210015Z 18010KT 10/M07 A3006 RMK A01 T01011071  RH  029%=      5-min Rain = 0
KRLS 210020Z 17009KT 10/M07 A3006 RMK A01 T00981073  RH  029%=      5-min Rain = 0
KRLS 210025Z 17008KT 09/M07 A3006 RMK A01 T00901073  RH  031%=      5-min Rain = 0
KRLS 210030Z 17009KT 09/M07 A3006 RMK A01 T00851072  RH  032%=      5-min Rain = 0
KRLS 210035Z 17010KT 08/M07 A3006 RMK A01 T00791070  RH  034%=      5-min Rain = 0
KRLS 210040Z 17010KT 08/M07 A3006 RMK A01 T00781068  RH  035%=      5-min Rain = 0
KRLS 210045Z 17009KT 07/M07 A3006 RMK A01 T00741067  RH  036%=      5-min Rain = 0
KRLS 210050Z 18009KT 07/M07 A3006 RMK A01 T00711068  RH  037%=      5-min Rain = 0
KRLS 210055Z 17009KT 07/M07 A3006 RMK A01 T00691069  RH  037%=      5-min Rain = 0
KRLS 210100Z 17009KT 07/M07 A3006 RMK A01 T00661069  RH  037%=      5-min Rain = 0
KRLS 210105Z 17009KT 07/M07 A3006 RMK A01 T00651067  RH  038%=      5-min Rain = 0
KRLS 210110Z 17009KT 06/M07 A3006 RMK A01 T00631068  RH  039%=      5-min Rain = 0
KRLS 210115Z 17009KT 06/M07 A3006 RMK A01 T00631067  RH  039%=      5-min Rain = 0
KRLS 210120Z 17009KT 06/M07 A3006 RMK A01 T00591068  RH  040%=      5-min Rain = 0
KRLS 210125Z 16009KT 06/M07 A3006 RMK A01 T00571067  RH  040%=      5-min Rain = 0
KRLS 210130Z 16009KT 05/M07 A3005 RMK A01 T00531069  RH  041%=      5-min Rain = 0
KRLS 210135Z 16008KT 05/M07 A3005 RMK A01 T00511070  RH  041%=      5-min Rain = 0
KRLS 210140Z 16009KT 05/M07 A3005 RMK A01 T00501069  RH  042%=      5-min Rain = 0
KRLS 210145Z 17009KT 05/M07 A3005 RMK A01 T00521066  RH  042%=      5-min Rain = 0
KRLS 210150Z 17010KT 05/M07 A3005 RMK A01 T00511065  RH  043%=      5-min Rain = 0
KRLS 210155Z 17011KT 05/M06 A3005 RMK A01 T00541063  RH  043%=      5-min Rain = 0
KRLS 210200Z 17010KT 06/M06 A3005 RMK A01 T00551062  RH  043%=      5-min Rain = 0
KRLS 210205Z 17009KT 05/M06 A3005 RMK A01 T00511062  RH  044%=      5-min Rain = 0
KRLS 210210Z 17009KT 05/M06 A3005 RMK A01 T00501060  RH  045%=      5-min Rain = 0
KRLS 210215Z 17009KT 05/M06 A3004 RMK A01 T00491059  RH  045%=      5-min Rain = 0
KRLS 210220Z 17009KT 05/M06 A3004 RMK A01 T00471058  RH  046%=      5-min Rain = 0
KRLS 210225Z 17009KT 05/M06 A3004 RMK A01 T00461057  RH  047%=      5-min Rain = 0
KRLS 210230Z 17009KT 04/M06 A3004 RMK A01 T00441057  RH  048%=      5-min Rain = 0
KRLS 210235Z 18009KT 04/M06 A3004 RMK A01 T00401058  RH  049%=      5-min Rain = 0
KRLS 210240Z 18008KT 03/M06 A3004 RMK A01 T00321061  RH  050%=      5-min Rain = 0
KRLS 210245Z 18008KT 03/M06 A3003 RMK A01 T00281060  RH  052%=      5-min Rain = 0
KRLS 210250Z 18006KT 03/M06 A3003 RMK A01 T00261059  RH  054%=      5-min Rain = 0
KRLS 210255Z 19006KT 03/M06 A3003 RMK A01 T00301057  RH  053%=      5-min Rain = 0
KRLS 210300Z 18006KT 03/M05 A3003 RMK A01 T00331054  RH  053%=      5-min Rain = 0
KRLS 210305Z 18007KT 03/M05 A3003 RMK A01 T00331053  RH  053%=      5-min Rain = 0
KRLS 210310Z 18007KT 03/M05 A3003 RMK A01 T00341051  RH  054%=      5-min Rain = 0
KRLS 210315Z 18008KT 04/M05 A3003 RMK A01 T00351049  RH  054%=      5-min Rain = 0
KRLS 210320Z 18008KT 04/M05 A3002 RMK A01 T00371049  RH  054%=      5-min Rain = 0
KRLS 210325Z 18009KT 04/M05 A3002 RMK A01 T00401047  RH  053%=      5-min Rain = 0
KRLS 210330Z 18010KT 05/M05 A3002 RMK A01 T00461045  RH  052%=      5-min Rain = 0
KRLS 210335Z 18009KT 05/M05 A3002 RMK A01 T00461046  RH  051%=      5-min Rain = 0
KRLS 210340Z 18008KT 04/M05 A3002 RMK A01 T00441047  RH  052%=      5-min Rain = 0
KRLS 210345Z 18009KT 05/M05 A3001 RMK A01 T00461046  RH  052%=      5-min Rain = 0
KRLS 210350Z 18009KT 05/M05 A3001 RMK A01 T00461045  RH  052%=      5-min Rain = 0
KRLS 210355Z 19008KT 04/M05 A3001 RMK A01 T00441047  RH  052%=      5-min Rain = 0
KRLS 210400Z 19007KT 04/M05 A3001 RMK A01 T00381048  RH  053%=      5-min Rain = 0
KRLS 210405Z 19007KT 04/M05 A3001 RMK A01 T00361047  RH  055%=      5-min Rain = 0
KRLS 210410Z 19006KT 04/M05 A3001 RMK A01 T00351046  RH  056%=      5-min Rain = 0
KRLS 210415Z 19006KT 03/M05 A3001 RMK A01 T00331047  RH  056%=      5-min Rain = 0
KRLS 210420Z 19007KT 03/M05 A3001 RMK A01 T00311047  RH  057%=      5-min Rain = 0
KRLS 210425Z 19008KT 03/M05 A3001 RMK A01 T00301047  RH  057%=      5-min Rain = 0
KRLS 210430Z 19007KT 03/M05 A3001 RMK A01 T00261050  RH  057%=      5-min Rain = 0
KRLS 210435Z 20007KT 02/M05 A3001 RMK A01 T00231051  RH  058%=      5-min Rain = 0
KRLS 210440Z 20008KT 02/M05 A3001 RMK A01 T00241050  RH  058%=      5-min Rain = 0
KRLS 210445Z 20009KT 03/M05 A3001 RMK A01 T00281047  RH  058%=      5-min Rain = 0
KRLS 210450Z 20007KT 03/M05 A3001 RMK A01 T00251051  RH  057%=      5-min Rain = 0
KRLS 210455Z 21005KT 02/M05 A3002 RMK A01 T00161054  RH  060%=      5-min Rain = 0
KRLS 210500Z 21006KT 01/M06 A3002 RMK A01 T00131056  RH  060%=      5-min Rain = 0
KRLS 210505Z 21008KT 01/M06 A3002 RMK A01 T00081058  RH  062%=      5-min Rain = 0
KRLS 210510Z 21008KT 01/M05 A3002 RMK A01 T00121053  RH  062%=      5-min Rain = 0
KRLS 210515Z 21010KT 02/M05 A3002 RMK A01 T00161052  RH  061%=      5-min Rain = 0
KRLS 210520Z 21010KT 02/M05 A3002 RMK A01 T00171051  RH  061%=      5-min Rain = 0
KRLS 210525Z 21010KT 02/M05 A3002 RMK A01 T00171051  RH  061%=      5-min Rain = 0
KRLS 210530Z 21009KT 02/M05 A3002 RMK A01 T00181049  RH  061%=      5-min Rain = 0
KRLS 210535Z 20009KT 02/M05 A3002 RMK A01 T00181049  RH  061%=      5-min Rain = 0
KRLS 210540Z 20008KT 02/M05 A3002 RMK A01 T00201047  RH  062%=      5-min Rain = 0
KRLS 210545Z 21009KT 03/M04 A3001 RMK A01 T00251043  RH  061%=      5-min Rain = 0
KRLS 210550Z 21010KT 03/M04 A3001 RMK A01 T00341038  RH  060%=      5-min Rain = 0
KRLS 210555Z 21011KT 05/M03 A3001 RMK A01 T00461032  RH  057%=      5-min Rain = 0

Page generated in 0.0202 seconds.